sensor_id;sensor_type;location;lat;lon;timestamp;temperature;humidity
37874;DHT22;23709;48.078;11.684;2023-06-14T00:01:45;12.30;84.30
37874;DHT22;23709;48.078;11.684;2023-06-14T00:04:19;12.30;84.60
37874;DHT22;23709;48.078;11.684;2023-06-14T00:06:52;12.30;84.70
37874;DHT22;23709;48.078;11.684;2023-06-14T00:09:25;12.30;84.40
37874;DHT22;23709;48.078;11.684;2023-06-14T00:11:57;12.40;84.50
37874;DHT22;23709;48.078;11.684;2023-06-14T00:14:30;12.40;84.50
37874;DHT22;23709;48.078;11.684;2023-06-14T00:17:02;12.40;84.70
37874;DHT22;23709;48.078;11.684;2023-06-14T00:19:35;12.30;84.70
37874;DHT22;23709;48.078;11.684;2023-06-14T00:22:08;12.20;85.30
37874;DHT22;23709;48.078;11.684;2023-06-14T00:24:41;12.10;86.10
37874;DHT22;23709;48.078;11.684;2023-06-14T00:27:13;12.00;86.20
37874;DHT22;23709;48.078;11.684;2023-06-14T00:29:46;12.00;86.00
37874;DHT22;23709;48.078;11.684;2023-06-14T00:32:18;11.90;85.80
37874;DHT22;23709;48.078;11.684;2023-06-14T00:34:51;11.90;85.90
37874;DHT22;23709;48.078;11.684;2023-06-14T00:37:24;11.80;86.10
37874;DHT22;23709;48.078;11.684;2023-06-14T00:39:57;11.70;87.20
37874;DHT22;23709;48.078;11.684;2023-06-14T00:42:29;11.60;88.30
37874;DHT22;23709;48.078;11.684;2023-06-14T00:45:02;11.50;89.30
37874;DHT22;23709;48.078;11.684;2023-06-14T00:47:37;11.60;89.80
37874;DHT22;23709;48.078;11.684;2023-06-14T00:50:10;11.50;89.30
37874;DHT22;23709;48.078;11.684;2023-06-14T00:52:43;11.50;89.40
37874;DHT22;23709;48.078;11.684;2023-06-14T00:55:16;11.50;89.90
37874;DHT22;23709;48.078;11.684;2023-06-14T00:57:48;11.50;90.00
37874;DHT22;23709;48.078;11.684;2023-06-14T01:00:21;11.50;90.20
37874;DHT22;23709;48.078;11.684;2023-06-14T01:03:12;11.50;90.30
37874;DHT22;23709;48.078;11.684;2023-06-14T01:06:15;11.50;90.20
37874;DHT22;23709;48.078;11.684;2023-06-14T01:12:10;11.30;90.20
37874;DHT22;23709;48.078;11.684;2023-06-14T01:14:44;11.40;90.20
37874;DHT22;23709;48.078;11.684;2023-06-14T01:17:19;11.40;90.10
37874;DHT22;23709;48.078;11.684;2023-06-14T01:19:52;11.40;90.10
37874;DHT22;23709;48.078;11.684;2023-06-14T01:22:29;11.30;90.00
37874;DHT22;23709;48.078;11.684;2023-06-14T01:25:02;11.20;90.20
37874;DHT22;23709;48.078;11.684;2023-06-14T01:27:35;11.20;90.40
37874;DHT22;23709;48.078;11.684;2023-06-14T01:30:08;11.00;91.00
37874;DHT22;23709;48.078;11.684;2023-06-14T01:32:42;11.10;91.20
37874;DHT22;23709;48.078;11.684;2023-06-14T01:35:14;11.10;91.20
37874;DHT22;23709;48.078;11.684;2023-06-14T01:37:48;11.10;91.10
37874;DHT22;23709;48.078;11.684;2023-06-14T01:40:21;11.00;91.20
37874;DHT22;23709;48.078;11.684;2023-06-14T01:42:54;10.90;91.20
37874;DHT22;23709;48.078;11.684;2023-06-14T01:45:29;10.90;91.60
37874;DHT22;23709;48.078;11.684;2023-06-14T01:48:01;10.90;91.90
37874;DHT22;23709;48.078;11.684;2023-06-14T01:50:36;10.80;92.10
37874;DHT22;23709;48.078;11.684;2023-06-14T01:53:09;10.70;92.50
37874;DHT22;23709;48.078;11.684;2023-06-14T01:55:42;10.60;93.00
37874;DHT22;23709;48.078;11.684;2023-06-14T01:58:16;10.60;93.20
37874;DHT22;23709;48.078;11.684;2023-06-14T02:00:48;10.60;93.40
37874;DHT22;23709;48.078;11.684;2023-06-14T02:03:21;10.50;93.40
37874;DHT22;23709;48.078;11.684;2023-06-14T02:05:53;10.60;93.30
37874;DHT22;23709;48.078;11.684;2023-06-14T02:08:27;10.70;93.20
37874;DHT22;23709;48.078;11.684;2023-06-14T02:11:00;10.70;93.20
37874;DHT22;23709;48.078;11.684;2023-06-14T02:13:32;10.70;93.00
37874;DHT22;23709;48.078;11.684;2023-06-14T02:16:04;10.70;92.70
37874;DHT22;23709;48.078;11.684;2023-06-14T02:18:37;10.70;92.70
37874;DHT22;23709;48.078;11.684;2023-06-14T02:21:10;10.60;93.00
37874;DHT22;23709;48.078;11.684;2023-06-14T02:23:42;10.50;93.30
37874;DHT22;23709;48.078;11.684;2023-06-14T02:26:15;10.50;93.60
37874;DHT22;23709;48.078;11.684;2023-06-14T02:28:47;10.40;93.70
37874;DHT22;23709;48.078;11.684;2023-06-14T02:31:19;10.40;94.00
37874;DHT22;23709;48.078;11.684;2023-06-14T02:33:53;10.30;94.30
37874;DHT22;23709;48.078;11.684;2023-06-14T02:36:25;10.30;94.60
37874;DHT22;23709;48.078;11.684;2023-06-14T02:38:58;10.30;94.80
37874;DHT22;23709;48.078;11.684;2023-06-14T02:41:31;10.30;95.00
37874;DHT22;23709;48.078;11.684;2023-06-14T02:44:03;10.20;95.20
37874;DHT22;23709;48.078;11.684;2023-06-14T02:46:36;10.20;95.40
37874;DHT22;23709;48.078;11.684;2023-06-14T02:49:13;10.10;95.40
37874;DHT22;23709;48.078;11.684;2023-06-14T02:51:45;10.10;95.60
37874;DHT22;23709;48.078;11.684;2023-06-14T02:54:17;10.10;95.50
37874;DHT22;23709;48.078;11.684;2023-06-14T02:56:50;10.00;95.80
37874;DHT22;23709;48.078;11.684;2023-06-14T02:59:22;10.00;95.70
37874;DHT22;23709;48.078;11.684;2023-06-14T03:01:59;10.00;95.80
37874;DHT22;23709;48.078;11.684;2023-06-14T03:04:32;10.10;96.00
37874;DHT22;23709;48.078;11.684;2023-06-14T03:07:14;10.10;96.10
37874;DHT22;23709;48.078;11.684;2023-06-14T03:09:55;10.00;96.10
37874;DHT22;23709;48.078;11.684;2023-06-14T03:12:28;10.10;96.10
37874;DHT22;23709;48.078;11.684;2023-06-14T03:15:00;10.00;96.00
37874;DHT22;23709;48.078;11.684;2023-06-14T03:17:41;9.90;95.70
37874;DHT22;23709;48.078;11.684;2023-06-14T03:20:19;9.80;96.40
37874;DHT22;23709;48.078;11.684;2023-06-14T03:22:52;9.80;96.00
37874;DHT22;23709;48.078;11.684;2023-06-14T03:25:27;9.70;96.30
37874;DHT22;23709;48.078;11.684;2023-06-14T03:28:05;9.70;96.40
37874;DHT22;23709;48.078;11.684;2023-06-14T03:30:37;9.60;96.50
37874;DHT22;23709;48.078;11.684;2023-06-14T03:33:10;9.60;96.80
37874;DHT22;23709;48.078;11.684;2023-06-14T03:35:44;9.60;97.10
37874;DHT22;23709;48.078;11.684;2023-06-14T03:38:17;9.60;97.00
37874;DHT22;23709;48.078;11.684;2023-06-14T03:40:50;9.60;97.40
37874;DHT22;23709;48.078;11.684;2023-06-14T03:43:22;9.60;97.50
37874;DHT22;23709;48.078;11.684;2023-06-14T03:45:54;9.60;97.40
37874;DHT22;23709;48.078;11.684;2023-06-14T03:48:28;9.60;97.50
37874;DHT22;23709;48.078;11.684;2023-06-14T03:51:00;9.60;98.00
37874;DHT22;23709;48.078;11.684;2023-06-14T03:53:34;9.50;98.40
37874;DHT22;23709;48.078;11.684;2023-06-14T03:56:15;9.50;98.50
37874;DHT22;23709;48.078;11.684;2023-06-14T03:58:48;9.60;98.60
37874;DHT22;23709;48.078;11.684;2023-06-14T04:01:20;9.60;98.80
37874;DHT22;23709;48.078;11.684;2023-06-14T04:03:53;9.50;98.90
37874;DHT22;23709;48.078;11.684;2023-06-14T04:06:25;9.50;99.10
37874;DHT22;23709;48.078;11.684;2023-06-14T04:09:04;9.50;99.60
37874;DHT22;23709;48.078;11.684;2023-06-14T04:11:37;9.70;99.60
37874;DHT22;23709;48.078;11.684;2023-06-14T04:14:09;9.70;99.90
37874;DHT22;23709;48.078;11.684;2023-06-14T04:16:42;9.70;99.90
37874;DHT22;23709;48.078;11.684;2023-06-14T04:19:17;9.80;99.90
37874;DHT22;23709;48.078;11.684;2023-06-14T04:21:50;9.90;99.90
37874;DHT22;23709;48.078;11.684;2023-06-14T04:24:22;9.90;99.90
37874;DHT22;23709;48.078;11.684;2023-06-14T04:26:55;9.90;99.90
37874;DHT22;23709;48.078;11.684;2023-06-14T04:29:31;10.00;99.90
37874;DHT22;23709;48.078;11.684;2023-06-14T04:32:10;9.90;99.90
37874;DHT22;23709;48.078;11.684;2023-06-14T04:34:43;10.00;99.90
37874;DHT22;23709;48.078;11.684;2023-06-14T04:37:16;10.10;99.90
37874;DHT22;23709;48.078;11.684;2023-06-14T04:39:49;10.10;99.90
37874;DHT22;23709;48.078;11.684;2023-06-14T04:42:23;10.30;99.90
37874;DHT22;23709;48.078;11.684;2023-06-14T04:44:57;10.40;99.90
37874;DHT22;23709;48.078;11.684;2023-06-14T04:47:30;10.40;99.90
37874;DHT22;23709;48.078;11.684;2023-06-14T04:50:04;10.50;99.90
37874;DHT22;23709;48.078;11.684;2023-06-14T08:06:57;10.50;99.90
37874;DHT22;23709;48.078;11.684;2023-06-14T08:09:29;19.90;65.70
37874;DHT22;23709;48.078;11.684;2023-06-14T08:12:01;19.80;63.90
37874;DHT22;23709;48.078;11.684;2023-06-14T10:31:49;19.90;64.10
37874;DHT22;23709;48.078;11.684;2023-06-14T10:44:38;24.00;51.70
37874;DHT22;23709;48.078;11.684;2023-06-14T10:47:34;24.60;49.80
37874;DHT22;23709;48.078;11.684;2023-06-14T10:50:11;24.40;51.10
37874;DHT22;23709;48.078;11.684;2023-06-14T11:11:35;25.30;50.90
37874;DHT22;23709;48.078;11.684;2023-06-14T11:14:08;25.40;50.20
37874;DHT22;23709;48.078;11.684;2023-06-14T11:16:40;25.50;49.80
37874;DHT22;23709;48.078;11.684;2023-06-14T11:19:12;25.30;48.00
37874;DHT22;23709;48.078;11.684;2023-06-14T11:21:47;25.20;48.20
37874;DHT22;23709;48.078;11.684;2023-06-14T11:24:20;25.60;49.60
37874;DHT22;23709;48.078;11.684;2023-06-14T11:26:52;26.40;49.70
37874;DHT22;23709;48.078;11.684;2023-06-14T11:29:24;26.30;47.70
37874;DHT22;23709;48.078;11.684;2023-06-14T11:31:57;26.50;47.60
37874;DHT22;23709;48.078;11.684;2023-06-14T11:34:32;26.50;46.80
37874;DHT22;23709;48.078;11.684;2023-06-14T11:37:05;26.90;47.60
37874;DHT22;23709;48.078;11.684;2023-06-14T11:39:43;26.70;45.90
37874;DHT22;23709;48.078;11.684;2023-06-14T11:42:15;26.90;46.10
37874;DHT22;23709;48.078;11.684;2023-06-14T11:44:48;27.30;46.30
37874;DHT22;23709;48.078;11.684;2023-06-14T11:47:21;27.50;45.30
37874;DHT22;23709;48.078;11.684;2023-06-14T11:49:53;27.60;45.60
37874;DHT22;23709;48.078;11.684;2023-06-14T11:52:26;27.70;46.20
37874;DHT22;23709;48.078;11.684;2023-06-14T11:54:59;27.80;44.40
37874;DHT22;23709;48.078;11.684;2023-06-14T11:57:34;27.80;45.60
37874;DHT22;23709;48.078;11.684;2023-06-14T12:00:08;27.90;44.90
37874;DHT22;23709;48.078;11.684;2023-06-14T12:02:55;27.80;44.20
37874;DHT22;23709;48.078;11.684;2023-06-14T12:05:28;27.80;43.50
37874;DHT22;23709;48.078;11.684;2023-06-14T12:08:03;28.00;45.50
37874;DHT22;23709;48.078;11.684;2023-06-14T12:10:40;28.20;44.40
37874;DHT22;23709;48.078;11.684;2023-06-14T12:13:17;28.30;43.70
37874;DHT22;23709;48.078;11.684;2023-06-14T12:15:55;28.30;43.00
37874;DHT22;23709;48.078;11.684;2023-06-14T12:18:35;28.00;42.60
37874;DHT22;23709;48.078;11.684;2023-06-14T12:21:08;27.90;41.90
37874;DHT22;23709;48.078;11.684;2023-06-14T12:23:47;27.90;43.10
37874;DHT22;23709;48.078;11.684;2023-06-14T12:26:20;28.20;43.30
37874;DHT22;23709;48.078;11.684;2023-06-14T12:28:54;28.30;43.20
37874;DHT22;23709;48.078;11.684;2023-06-14T12:31:26;27.90;43.00
37874;DHT22;23709;48.078;11.684;2023-06-14T12:33:59;27.10;42.50
37874;DHT22;23709;48.078;11.684;2023-06-14T12:36:31;26.70;43.70
37874;DHT22;23709;48.078;11.684;2023-06-14T12:39:04;26.20;43.20
37874;DHT22;23709;48.078;11.684;2023-06-14T12:41:36;26.20;45.00
37874;DHT22;23709;48.078;11.684;2023-06-14T12:44:13;26.30;43.60
37874;DHT22;23709;48.078;11.684;2023-06-14T12:46:46;26.00;44.40
37874;DHT22;23709;48.078;11.684;2023-06-14T12:49:19;26.40;45.00
37874;DHT22;23709;48.078;11.684;2023-06-14T12:51:52;26.40;44.80
37874;DHT22;23709;48.078;11.684;2023-06-14T12:54:25;26.80;44.60
37874;DHT22;23709;48.078;11.684;2023-06-14T12:57:11;27.20;44.30
37874;DHT22;23709;48.078;11.684;2023-06-14T12:59:44;27.60;43.30
37874;DHT22;23709;48.078;11.684;2023-06-14T13:02:17;27.60;42.20
37874;DHT22;23709;48.078;11.684;2023-06-14T13:04:50;28.00;43.10
37874;DHT22;23709;48.078;11.684;2023-06-14T13:07:22;28.30;43.00
37874;DHT22;23709;48.078;11.684;2023-06-14T13:09:54;28.70;42.20
37874;DHT22;23709;48.078;11.684;2023-06-14T13:12:27;28.60;41.90
37874;DHT22;23709;48.078;11.684;2023-06-14T13:14:59;28.20;40.70
37874;DHT22;23709;48.078;11.684;2023-06-14T13:17:31;27.90;40.70
37874;DHT22;23709;48.078;11.684;2023-06-14T13:20:06;27.80;41.60
37874;DHT22;23709;48.078;11.684;2023-06-14T13:22:38;28.20;41.80
37874;DHT22;23709;48.078;11.684;2023-06-14T13:25:11;28.60;41.60
37874;DHT22;23709;48.078;11.684;2023-06-14T13:27:43;28.20;40.50
37874;DHT22;23709;48.078;11.684;2023-06-14T13:30:16;28.10;39.30
37874;DHT22;23709;48.078;11.684;2023-06-14T13:32:48;28.20;40.00
37874;DHT22;23709;48.078;11.684;2023-06-14T13:35:22;27.50;40.10
37874;DHT22;23709;48.078;11.684;2023-06-14T13:37:55;27.90;41.10
37874;DHT22;23709;48.078;11.684;2023-06-14T13:40:27;28.50;41.60
37874;DHT22;23709;48.078;11.684;2023-06-14T13:43:00;28.90;40.30
37874;DHT22;23709;48.078;11.684;2023-06-14T13:45:32;28.80;40.40
37874;DHT22;23709;48.078;11.684;2023-06-14T13:48:05;28.90;40.20
37874;DHT22;23709;48.078;11.684;2023-06-14T13:50:37;29.10;38.90
37874;DHT22;23709;48.078;11.684;2023-06-14T13:53:10;28.90;39.20
37874;DHT22;23709;48.078;11.684;2023-06-14T13:55:42;29.00;39.20
37874;DHT22;23709;48.078;11.684;2023-06-14T13:58:15;28.70;38.70
37874;DHT22;23709;48.078;11.684;2023-06-14T14:00:47;28.00;38.70
37874;DHT22;23709;48.078;11.684;2023-06-14T14:03:20;27.40;39.70
37874;DHT22;23709;48.078;11.684;2023-06-14T14:05:52;27.20;41.10
37874;DHT22;23709;48.078;11.684;2023-06-14T14:08:25;27.70;41.60
37874;DHT22;23709;48.078;11.684;2023-06-14T14:10:58;27.60;41.10
37874;DHT22;23709;48.078;11.684;2023-06-14T14:13:30;27.20;40.80
37874;DHT22;23709;48.078;11.684;2023-06-14T14:16:03;26.40;40.90
37874;DHT22;23709;48.078;11.684;2023-06-14T14:18:36;26.00;41.50
37874;DHT22;23709;48.078;11.684;2023-06-14T14:21:09;26.10;41.90
37874;DHT22;23709;48.078;11.684;2023-06-14T14:23:42;26.40;41.10
37874;DHT22;23709;48.078;11.684;2023-06-14T14:26:16;26.80;40.20
37874;DHT22;23709;48.078;11.684;2023-06-14T14:28:49;27.10;40.40
37874;DHT22;23709;48.078;11.684;2023-06-14T14:31:21;27.60;39.70
37874;DHT22;23709;48.078;11.684;2023-06-14T14:33:54;27.60;40.00
37874;DHT22;23709;48.078;11.684;2023-06-14T14:36:27;27.80;39.80
37874;DHT22;23709;48.078;11.684;2023-06-14T14:38:59;28.20;38.50
37874;DHT22;23709;48.078;11.684;2023-06-14T14:41:35;28.40;38.70
37874;DHT22;23709;48.078;11.684;2023-06-14T14:44:13;28.30;38.30
37874;DHT22;23709;48.078;11.684;2023-06-14T14:46:45;28.00;40.10
37874;DHT22;23709;48.078;11.684;2023-06-14T14:49:17;28.40;40.10
37874;DHT22;23709;48.078;11.684;2023-06-14T14:51:50;28.20;39.80
37874;DHT22;23709;48.078;11.684;2023-06-14T14:54:22;28.40;40.10
37874;DHT22;23709;48.078;11.684;2023-06-14T14:56:56;27.70;40.10
37874;DHT22;23709;48.078;11.684;2023-06-14T14:59:28;27.00;40.50
37874;DHT22;23709;48.078;11.684;2023-06-14T15:02:00;26.20;40.60
37874;DHT22;23709;48.078;11.684;2023-06-14T15:04:33;26.10;41.90
37874;DHT22;23709;48.078;11.684;2023-06-14T15:17:19;25.90;42.30
37874;DHT22;23709;48.078;11.684;2023-06-14T15:19:52;26.70;43.60
37874;DHT22;23709;48.078;11.684;2023-06-14T15:22:24;27.00;41.20
37874;DHT22;23709;48.078;11.684;2023-06-14T15:24:56;27.30;40.80
37874;DHT22;23709;48.078;11.684;2023-06-14T15:27:28;27.30;40.40
37874;DHT22;23709;48.078;11.684;2023-06-14T15:30:01;27.50;40.90
37874;DHT22;23709;48.078;11.684;2023-06-14T15:32:33;27.90;41.00
37874;DHT22;23709;48.078;11.684;2023-06-14T15:35:07;28.20;40.80
37874;DHT22;23709;48.078;11.684;2023-06-14T15:37:39;28.40;40.60
37874;DHT22;23709;48.078;11.684;2023-06-14T15:40:12;28.40;39.30
37874;DHT22;23709;48.078;11.684;2023-06-14T15:42:44;28.60;41.30
37874;DHT22;23709;48.078;11.684;2023-06-14T15:45:17;28.80;39.50
37874;DHT22;23709;48.078;11.684;2023-06-14T15:47:49;28.90;38.50
37874;DHT22;23709;48.078;11.684;2023-06-14T15:50:21;28.10;38.90
37874;DHT22;23709;48.078;11.684;2023-06-14T15:52:54;28.10;38.80
37874;DHT22;23709;48.078;11.684;2023-06-14T15:55:27;28.30;39.90
37874;DHT22;23709;48.078;11.684;2023-06-14T15:57:59;28.40;39.90
37874;DHT22;23709;48.078;11.684;2023-06-14T16:00:33;28.70;38.80
37874;DHT22;23709;48.078;11.684;2023-06-14T16:03:05;28.80;40.20
37874;DHT22;23709;48.078;11.684;2023-06-14T16:05:37;28.60;39.80
37874;DHT22;23709;48.078;11.684;2023-06-14T16:08:10;28.10;41.10
37874;DHT22;23709;48.078;11.684;2023-06-14T16:10:42;27.80;41.20
37874;DHT22;23709;48.078;11.684;2023-06-14T16:13:15;28.00;41.90
37874;DHT22;23709;48.078;11.684;2023-06-14T16:15:47;27.90;41.60
37874;DHT22;23709;48.078;11.684;2023-06-14T16:18:21;27.80;41.50
37874;DHT22;23709;48.078;11.684;2023-06-14T16:20:53;27.90;41.40
37874;DHT22;23709;48.078;11.684;2023-06-14T16:23:27;28.10;41.30
37874;DHT22;23709;48.078;11.684;2023-06-14T16:25:59;28.20;42.00
37874;DHT22;23709;48.078;11.684;2023-06-14T16:28:31;28.20;41.40
37874;DHT22;23709;48.078;11.684;2023-06-14T16:31:04;28.10;40.80
37874;DHT22;23709;48.078;11.684;2023-06-14T16:33:36;27.80;41.20
37874;DHT22;23709;48.078;11.684;2023-06-14T16:36:08;27.50;41.10
37874;DHT22;23709;48.078;11.684;2023-06-14T16:38:40;27.70;41.30
37874;DHT22;23709;48.078;11.684;2023-06-14T16:41:13;27.80;41.30
37874;DHT22;23709;48.078;11.684;2023-06-14T16:43:45;28.00;41.00
37874;DHT22;23709;48.078;11.684;2023-06-14T16:46:31;27.90;41.20
37874;DHT22;23709;48.078;11.684;2023-06-14T16:49:04;28.10;41.20
37874;DHT22;23709;48.078;11.684;2023-06-14T16:51:36;28.20;40.90
37874;DHT22;23709;48.078;11.684;2023-06-14T16:54:08;28.50;41.40
37874;DHT22;23709;48.078;11.684;2023-06-14T16:56:40;28.00;41.00
37874;DHT22;23709;48.078;11.684;2023-06-14T16:59:12;27.70;41.00
37874;DHT22;23709;48.078;11.684;2023-06-14T17:01:45;27.30;42.40
37874;DHT22;23709;48.078;11.684;2023-06-14T17:32:21;26.70;42.50
37874;DHT22;23709;48.078;11.684;2023-06-14T17:45:05;23.80;48.60
37874;DHT22;23709;48.078;11.684;2023-06-14T17:47:38;23.00;49.60
37874;DHT22;23709;48.078;11.684;2023-06-14T17:50:10;22.90;49.00
37874;DHT22;23709;48.078;11.684;2023-06-14T17:52:42;22.70;49.50
37874;DHT22;23709;48.078;11.684;2023-06-14T18:13:12;22.60;49.40
37874;DHT22;23709;48.078;11.684;2023-06-14T18:15:45;21.80;51.40
37874;DHT22;23709;48.078;11.684;2023-06-14T18:18:18;21.70;52.60
37874;DHT22;23709;48.078;11.684;2023-06-14T18:20:50;21.70;52.50
37874;DHT22;23709;48.078;11.684;2023-06-14T18:23:22;21.60;52.30
37874;DHT22;23709;48.078;11.684;2023-06-14T18:25:54;21.60;52.70
37874;DHT22;23709;48.078;11.684;2023-06-14T18:28:26;21.50;52.40
37874;DHT22;23709;48.078;11.684;2023-06-14T18:30:59;21.50;52.90
37874;DHT22;23709;48.078;11.684;2023-06-14T18:33:31;21.40;52.90
37874;DHT22;23709;48.078;11.684;2023-06-14T18:38:36;21.30;52.90
37874;DHT22;23709;48.078;11.684;2023-06-14T18:41:08;21.10;53.90
37874;DHT22;23709;48.078;11.684;2023-06-14T18:43:40;21.10;53.20
37874;DHT22;23709;48.078;11.684;2023-06-14T18:46:13;21.10;53.40
37874;DHT22;23709;48.078;11.684;2023-06-14T18:48:45;21.00;53.70
37874;DHT22;23709;48.078;11.684;2023-06-14T18:51:18;20.90;53.60
37874;DHT22;23709;48.078;11.684;2023-06-14T18:53:54;20.80;54.50
37874;DHT22;23709;48.078;11.684;2023-06-14T18:56:27;20.70;54.50
37874;DHT22;23709;48.078;11.684;2023-06-14T18:59:03;20.70;54.40
37874;DHT22;23709;48.078;11.684;2023-06-14T19:01:36;20.60;54.60
37874;DHT22;23709;48.078;11.684;2023-06-14T19:04:08;20.60;55.10
37874;DHT22;23709;48.078;11.684;2023-06-14T19:06:41;20.60;55.80
37874;DHT22;23709;48.078;11.684;2023-06-14T19:09:17;20.40;55.90
37874;DHT22;23709;48.078;11.684;2023-06-14T19:11:52;20.30;57.10
37874;DHT22;23709;48.078;11.684;2023-06-14T19:14:24;20.20;57.10
37874;DHT22;23709;48.078;11.684;2023-06-14T19:16:57;20.10;57.30
37874;DHT22;23709;48.078;11.684;2023-06-14T19:19:29;20.00;57.40
37874;DHT22;23709;48.078;11.684;2023-06-14T19:22:02;19.90;57.90
37874;DHT22;23709;48.078;11.684;2023-06-14T19:24:34;19.70;59.20
37874;DHT22;23709;48.078;11.684;2023-06-14T19:27:06;19.60;59.90
37874;DHT22;23709;48.078;11.684;2023-06-14T19:29:39;19.50;60.30
37874;DHT22;23709;48.078;11.684;2023-06-14T19:32:11;19.40;60.60
37874;DHT22;23709;48.078;11.684;2023-06-14T19:34:47;19.30;61.30
37874;DHT22;23709;48.078;11.684;2023-06-14T19:37:22;19.20;61.40
37874;DHT22;23709;48.078;11.684;2023-06-14T19:39:57;19.10;62.10
37874;DHT22;23709;48.078;11.684;2023-06-14T19:42:29;19.00;62.80
37874;DHT22;23709;48.078;11.684;2023-06-14T19:45:02;18.90;63.20
37874;DHT22;23709;48.078;11.684;2023-06-14T19:47:34;18.80;63.60
37874;DHT22;23709;48.078;11.684;2023-06-14T19:55:13;18.70;64.20
37874;DHT22;23709;48.078;11.684;2023-06-14T19:57:45;18.60;65.60
37874;DHT22;23709;48.078;11.684;2023-06-14T20:00:18;18.50;65.10
37874;DHT22;23709;48.078;11.684;2023-06-14T20:02:50;18.40;66.50
37874;DHT22;23709;48.078;11.684;2023-06-14T20:05:23;18.40;65.80
37874;DHT22;23709;48.078;11.684;2023-06-14T20:07:57;18.30;66.60
37874;DHT22;23709;48.078;11.684;2023-06-14T20:10:29;18.30;66.70
37874;DHT22;23709;48.078;11.684;2023-06-14T20:13:02;18.10;67.40
37874;DHT22;23709;48.078;11.684;2023-06-14T20:15:35;18.10;67.50
37874;DHT22;23709;48.078;11.684;2023-06-14T20:18:07;18.00;67.50
37874;DHT22;23709;48.078;11.684;2023-06-14T20:20:40;18.00;68.10
37874;DHT22;23709;48.078;11.684;2023-06-14T20:23:13;17.90;68.30
37874;DHT22;23709;48.078;11.684;2023-06-14T20:25:46;17.90;68.90
37874;DHT22;23709;48.078;11.684;2023-06-14T20:28:22;17.80;68.70
37874;DHT22;23709;48.078;11.684;2023-06-14T20:30:55;17.80;69.00
37874;DHT22;23709;48.078;11.684;2023-06-14T20:33:27;17.80;69.30
37874;DHT22;23709;48.078;11.684;2023-06-14T20:36:01;17.70;69.20
37874;DHT22;23709;48.078;11.684;2023-06-14T20:43:38;17.70;68.80
37874;DHT22;23709;48.078;11.684;2023-06-14T20:46:10;17.60;70.60
37874;DHT22;23709;48.078;11.684;2023-06-14T20:48:43;17.60;70.70
37874;DHT22;23709;48.078;11.684;2023-06-14T20:51:15;17.60;70.50
37874;DHT22;23709;48.078;11.684;2023-06-14T20:53:48;17.50;69.80
37874;DHT22;23709;48.078;11.684;2023-06-14T20:56:20;17.60;70.20
37874;DHT22;23709;48.078;11.684;2023-06-14T20:58:52;17.50;70.20
37874;DHT22;23709;48.078;11.684;2023-06-14T21:01:26;17.40;70.40
37874;DHT22;23709;48.078;11.684;2023-06-14T21:19:22;17.30;70.60
37874;DHT22;23709;48.078;11.684;2023-06-14T21:21:54;16.90;72.40
37874;DHT22;23709;48.078;11.684;2023-06-14T21:24:29;16.90;73.20
37874;DHT22;23709;48.078;11.684;2023-06-14T21:27:02;16.80;73.00
37874;DHT22;23709;48.078;11.684;2023-06-14T21:29:34;16.80;73.30
37874;DHT22;23709;48.078;11.684;2023-06-14T21:32:12;16.70;73.30
37874;DHT22;23709;48.078;11.684;2023-06-14T21:34:44;16.80;73.60
37874;DHT22;23709;48.078;11.684;2023-06-14T21:37:17;16.80;73.90
37874;DHT22;23709;48.078;11.684;2023-06-14T21:39:49;16.60;73.90
37874;DHT22;23709;48.078;11.684;2023-06-14T21:42:21;16.50;74.20
37874;DHT22;23709;48.078;11.684;2023-06-14T21:44:53;16.40;74.30
37874;DHT22;23709;48.078;11.684;2023-06-14T21:47:27;16.40;75.10
37874;DHT22;23709;48.078;11.684;2023-06-14T21:49:59;16.30;75.70
37874;DHT22;23709;48.078;11.684;2023-06-14T21:52:31;16.30;75.80
37874;DHT22;23709;48.078;11.684;2023-06-14T21:55:04;16.30;76.00
37874;DHT22;23709;48.078;11.684;2023-06-14T21:57:37;16.30;76.10
37874;DHT22;23709;48.078;11.684;2023-06-14T22:00:10;16.20;76.00
37874;DHT22;23709;48.078;11.684;2023-06-14T22:02:43;16.20;76.50
37874;DHT22;23709;48.078;11.684;2023-06-14T22:05:15;16.20;76.10
37874;DHT22;23709;48.078;11.684;2023-06-14T22:07:47;16.20;75.70
37874;DHT22;23709;48.078;11.684;2023-06-14T22:10:20;16.10;75.70
37874;DHT22;23709;48.078;11.684;2023-06-14T22:12:52;16.10;76.20
37874;DHT22;23709;48.078;11.684;2023-06-14T22:15:25;16.00;76.60
37874;DHT22;23709;48.078;11.684;2023-06-14T22:17:57;15.90;77.20
37874;DHT22;23709;48.078;11.684;2023-06-14T22:20:30;15.90;77.60
37874;DHT22;23709;48.078;11.684;2023-06-14T22:23:04;15.90;78.10
37874;DHT22;23709;48.078;11.684;2023-06-14T22:25:40;15.70;78.30
37874;DHT22;23709;48.078;11.684;2023-06-14T22:28:12;15.70;78.90
37874;DHT22;23709;48.078;11.684;2023-06-14T22:30:44;15.70;79.10
37874;DHT22;23709;48.078;11.684;2023-06-14T22:33:16;15.60;79.40
37874;DHT22;23709;48.078;11.684;2023-06-14T22:35:49;15.50;79.80
37874;DHT22;23709;48.078;11.684;2023-06-14T22:38:21;15.40;79.80
37874;DHT22;23709;48.078;11.684;2023-06-14T22:40:53;15.40;80.00
37874;DHT22;23709;48.078;11.684;2023-06-14T22:43:26;15.30;80.30
37874;DHT22;23709;48.078;11.684;2023-06-14T22:45:58;15.20;80.40
37874;DHT22;23709;48.078;11.684;2023-06-14T22:48:30;15.20;80.70
37874;DHT22;23709;48.078;11.684;2023-06-14T22:51:17;15.10;81.20
37874;DHT22;23709;48.078;11.684;2023-06-14T22:53:50;15.10;81.60
37874;DHT22;23709;48.078;11.684;2023-06-14T22:56:23;15.00;81.90
37874;DHT22;23709;48.078;11.684;2023-06-14T22:58:55;15.00;81.70
37874;DHT22;23709;48.078;11.684;2023-06-14T23:01:27;14.90;81.90
37874;DHT22;23709;48.078;11.684;2023-06-14T23:03:59;14.80;82.50
37874;DHT22;23709;48.078;11.684;2023-06-14T23:06:31;14.70;82.80
37874;DHT22;23709;48.078;11.684;2023-06-14T23:09:05;14.80;83.10
37874;DHT22;23709;48.078;11.684;2023-06-14T23:11:38;14.70;83.50
37874;DHT22;23709;48.078;11.684;2023-06-14T23:14:15;14.70;84.00
37874;DHT22;23709;48.078;11.684;2023-06-14T23:16:49;14.60;84.60
37874;DHT22;23709;48.078;11.684;2023-06-14T23:19:22;14.60;85.30
37874;DHT22;23709;48.078;11.684;2023-06-14T23:21:56;14.50;85.30
37874;DHT22;23709;48.078;11.684;2023-06-14T23:24:31;14.40;85.90
37874;DHT22;23709;48.078;11.684;2023-06-14T23:27:06;14.30;86.30
37874;DHT22;23709;48.078;11.684;2023-06-14T23:29:39;14.20;86.80
37874;DHT22;23709;48.078;11.684;2023-06-14T23:32:14;14.20;87.40
37874;DHT22;23709;48.078;11.684;2023-06-14T23:34:48;14.20;87.40